Forks Of Salmon, CA (96031)

6:53 AM PDT on August 23, 2014 (GMT -0700)
RAWS SAWYERS BAR CA US | Change Station
CLOSE
Current Station
Personal Weather Station
Location: Forks Of Salmon, CA
Elevation: 2455 ft
Nearby Weather Stations

Elev 2455 ft 41.30 °N, 123.13 °W | Updated 31 minutes ago

Clear
Clear
57 °F
Feels Like 57 °F
N
5
Wind Variable Wind from East
Gusts 7.0 mph

Today
High -- | Low -- °F
--% Chance of Precip.
Yesterday
High -- | Low -- °F
Precip. -- in
6:30 AM 7:59 PM
Waning Crescent, 4% visible
Pressure 30.05 in
Visibility 10.0 miles
Clouds Clear
Dew Point 40 °F
Humidity 52%
Rainfall 0.00 in
Snow Depth Not available.
UV 0 out of 12
Pollen 7.20 out of 12
Air Quality Not available.
Flu Activity Not available.
METAR KO86 231335Z AUTO 27004KT 10SM CLR 11/04 A3005 RMK AO1

More Conditions Fewer Conditions

Pressure 30.05 in
Visibility 10.0 miles
Clouds Clear
Dew Point 40 °F
Humidity 52%
Rainfall 0.00 in
Snow Depth Not available.
UV 0 out of 12
Pollen 7.20 out of 12
Air Quality Not available.
Flu Activity Not available.
METAR KO86 231335Z AUTO 27004KT 10SM CLR 11/04 A3005 RMK AO1

More Conditions Fewer Conditions

10-Day Weather Forecast

Almanac

Astronomy

Aug. 23, 2014 Rise Set
Actual Time 6:30 AM PDT 7:59 PM PDT
Civil Twilight 6:01 AM PDT 8:28 PM PDT
Nautical Twilight 5:26 AM PDT 9:03 PM PDT
Astronomical Twilight 4:49 AM PDT 9:40 PM PDT
Moon 4:51 AM PDT 6:47 PM PDT
Length of Visible Light 14h 27m
Length of Day
13h 29m
Tomorrow will be 2m 33s shorter.
Waning Crescent, 4% of the Moon is Illuminated
Today
Waning Crescent
Aug 25
New
Sep 2
First Quarter
Sep 8
Full
Sep 15
Last Quarter

Today's Extremes

State Highs State Lows

Community

WunderPhotos

Upload Photos

1,746,455 photos uploaded!

WunderBlogs® & News

By Dr. Jeff Masters
Director of Meteorology, Weather Underground
By Kari Strenfel
Meteorologist, Weather Underground
By Christopher C. Burt
Weather Historian, Weather Underground
August 23, 2014
August 23, 2014
August 23, 2014

Nearby

Snow Depth

Station Depth Elevation
Adin Mountain 0 in 6200 ft
Cedar Pass 1 in 7100 ft
Independence Creek 0 in 6500 ft
Independence Lake 0 in 8450 ft
Independence Camp 0 in 7000 ft

Earthquake Activity

City Distance Mag. Time & Date
No recent earthquake activity has been reported nearby.
Minimum magnitude displayed is 2.5.

Coastal Water Temperatures

Place Temperature
No Stations Reporting

Nearby Weather Stations